Decoded Metar for NWWW (NOUMEA in NEW CALEDONIA) (IATA:NOU) | Meteo·Mobile Aviation Weather
aviador You're here:

NWWW Decoded Metar

NOUMEA in NEW CALEDONIA
Report Time2018-09-25 18:30:00
UTC Time2018-09-25 19:01:34
Flight Rules vfr VFR
WindCalm
Visibility9999 m
Phenomena:N/A
Clouds:N/A
Expected CloudBase > 800 ft AGL from Temp-Dew spread
CeilingNone
Temp13°C (ISA -2)
Dew Point11°C (88% RH)
QNH1016 hPa
Density Alt-98 ft
Elevation52 ft
Report Wrong Elevation
Raw Report
NWWW 251830Z AUTO 00000KT CAVOK 13/11 Q1016 NOSIG=

Extra information for NWWW:More info

Metar Taf Metar & Taf Last 4 Metars F.Rules Stats Wind Profile Meteogram Temp Stats Airport Information Weather charts Add Link Nearby VenuesMetar ALERT Operation Metar Decoded Social comments